Time;durP1;ratioP1;P1;durP2;ratioP2;P2;SDS_P1;SDS_P2;PMS_P1;PMS_P2;Temp;Humidity;BMP_temperature;BMP_pressure;BME280_temperature;BME280_humidity;BME280_pressure;Samples;Min_cycle;Max_cycle;Signal;HPM_P1;HPM_P2
2021/12/19 00:01:02;;;;;;;7.03;4.80;;;;;;;-1.07;100.00;94984.56;5052331;28;20100;-77
2021/12/19 00:11:06;;;;;;;9.77;5.43;;;;;;;-0.95;100.00;94969.22;5052749;28;20044;-77
2021/12/19 00:13:32;;;;;;;6.93;5.10;;;;;;;-1.00;100.00;94969.66;5051215;28;20122;-77
2021/12/19 00:15:58;;;;;;;9.15;5.25;;;;;;;-0.98;100.00;94973.44;5052262;28;20473;-77
2021/12/19 00:18:23;;;;;;;7.53;4.80;;;;;;;-1.01;100.00;94963.56;5052242;28;20385;-76
2021/12/19 00:20:49;;;;;;;8.13;5.00;;;;;;;-1.06;100.00;94974.69;5051311;28;20450;-76
2021/12/19 00:23:15;;;;;;;8.00;5.13;;;;;;;-0.95;100.00;94969.97;5052838;28;20376;-77
2021/12/19 00:25:41;;;;;;;7.28;5.03;;;;;;;-1.27;100.00;94965.78;5053139;28;20381;-77
2021/12/19 00:28:07;;;;;;;10.52;5.55;;;;;;;-1.43;100.00;94960.22;5052790;28;20040;-77
2021/12/19 00:30:32;;;;;;;9.68;5.55;;;;;;;-1.43;100.00;94962.91;5051501;28;20112;-76
2021/12/19 00:32:58;;;;;;;8.15;5.32;;;;;;;-1.27;100.00;94960.47;5055659;28;20063;-76
2021/12/19 00:35:24;;;;;;;10.35;6.15;;;;;;;-1.36;100.00;94957.50;5055952;28;20504;-77
2021/12/19 00:37:51;;;;;;;9.52;6.05;;;;;;;-1.48;100.00;94961.44;5056121;28;20021;-76
2021/12/19 00:40:16;;;;;;;8.88;5.90;;;;;;;-1.31;100.00;94967.72;5055555;28;20087;-77
2021/12/19 00:42:42;;;;;;;9.20;5.97;;;;;;;-1.27;100.00;94963.13;5055945;28;20442;-76
2021/12/19 00:45:24;;;;;;;9.35;5.32;;;;;;;-1.42;100.00;94959.09;5056154;28;20021;-76
2021/12/19 00:47:50;;;;;;;;;;;;;;;-1.57;100.00;94963.81;5056832;28;20435;-76
2021/12/19 00:50:16;;;;;;;7.70;5.13;;;;;;;-1.43;100.00;94957.56;5055420;28;19931;-76
2021/12/19 00:52:42;;;;;;;11.02;5.85;;;;;;;-1.29;100.00;94962.75;5056293;28;20361;-76
2021/12/19 00:55:08;;;;;;;10.65;5.70;;;;;;;-1.42;100.00;94953.75;5055629;28;20090;-77
2021/12/19 00:57:34;;;;;;;9.43;5.80;;;;;;;-1.50;100.00;94947.00;5055318;28;20386;-76
2021/12/19 01:00:00;;;;;;;10.75;5.68;;;;;;;-1.53;100.00;94937.91;5055555;28;20100;-77
2021/12/19 01:02:25;;;;;;;8.95;5.55;;;;;;;-1.68;100.00;94937.28;5055677;28;20438;-76
2021/12/19 01:04:51;;;;;;;8.40;5.65;;;;;;;-1.62;100.00;94930.41;5055283;28;20025;-76
2021/12/19 01:07:16;;;;;;;10.15;5.78;;;;;;;-1.56;100.00;94928.78;5055162;28;20064;-76
2021/12/19 01:09:42;;;;;;;8.38;5.57;;;;;;;-1.26;100.00;94932.66;5055161;28;20025;-76
2021/12/19 01:12:10;;;;;;;8.68;5.55;;;;;;;-1.60;100.00;94928.09;5055001;28;20041;-76
2021/12/19 01:14:37;;;;;;;8.80;6.35;;;;;;;-1.68;100.00;94931.97;5055150;28;20024;-77
2021/12/19 01:17:04;;;;;;;12.65;6.53;;;;;;;-1.71;100.00;94932.78;5055007;28;20477;-76
2021/12/19 01:19:29;;;;;;;8.65;6.22;;;;;;;-1.79;100.00;94920.69;5055702;28;20193;-76
2021/12/19 01:21:55;;;;;;;10.05;6.13;;;;;;;-1.79;100.00;94920.69;5055525;28;20056;-76
2021/12/19 01:24:20;;;;;;;10.75;6.30;;;;;;;-1.71;100.00;94922.13;5054893;28;20385;-75
2021/12/19 01:26:46;;;;;;;9.95;6.68;;;;;;;-1.78;100.00;94919.53;5054203;28;20460;-77
2021/12/19 01:29:13;;;;;;;8.10;5.85;;;;;;;-1.70;100.00;94923.63;5055170;28;20539;-76
2021/12/19 01:31:38;;;;;;;10.65;6.30;;;;;;;-1.48;100.00;94915.44;5054195;28;20060;-76
2021/12/19 01:34:04;;;;;;;8.85;6.25;;;;;;;-1.45;100.00;94917.28;5054954;28;20108;-76
2021/12/19 01:36:30;;;;;;;10.48;6.15;;;;;;;-1.56;100.00;94902.19;5053898;28;20024;-77
2021/12/19 01:38:56;;;;;;;8.43;5.78;;;;;;;-1.75;100.00;94905.44;5054634;28;20044;-76
2021/12/19 01:41:21;;;;;;;9.55;6.20;;;;;;;-1.59;100.00;94902.97;5054623;28;20033;-76
2021/12/19 01:43:46;;;;;;;12.75;8.38;;;;;;;-1.56;100.00;94902.19;5054467;28;20021;-76
2021/12/19 01:46:13;;;;;;;95.85;49.17;;;;;;;-1.34;100.00;94904.59;5053391;28;20029;-76
2021/12/19 01:48:38;;;;;;;89.13;48.45;;;;;;;-1.05;100.00;94896.22;5054416;28;20024;-76
2021/12/19 01:51:04;;;;;;;11.68;7.90;;;;;;;-1.31;100.00;94895.81;5053710;28;20438;-75
2021/12/19 01:53:30;;;;;;;8.95;6.43;;;;;;;-1.45;100.00;94902.06;5054304;28;20103;-76
2021/12/19 01:55:56;;;;;;;10.52;6.32;;;;;;;-1.36;100.00;94905.00;5053219;28;20458;-76
2021/12/19 01:58:21;;;;;;;9.32;6.18;;;;;;;-1.46;100.00;94894.47;5054289;28;20071;-76
2021/12/19 02:00:54;;;;;;;9.10;6.10;;;;;;;-1.35;100.00;94884.44;5054501;28;20457;-76
2021/12/19 02:03:20;;;;;;;12.68;6.97;;;;;;;-1.38;100.00;94887.91;5054863;28;20021;-76
2021/12/19 02:05:46;;;;;;;9.73;6.18;;;;;;;-1.49;100.00;94881.97;5054194;28;20035;-76
2021/12/19 02:08:13;;;;;;;11.10;6.22;;;;;;;-1.51;100.00;94881.59;5054038;28;20029;-77
2021/12/19 02:10:40;;;;;;;9.73;6.72;;;;;;;-1.30;100.00;94878.66;5054106;28;20045;-76
2021/12/19 02:13:08;;;;;;;8.88;6.05;;;;;;;-1.50;100.00;94875.13;5052960;28;20526;-77
2021/12/19 02:15:35;;;;;;;11.23;6.20;;;;;;;-1.40;100.00;94876.91;5053963;28;20033;-76
2021/12/19 02:18:07;;;;;;;10.55;6.45;;;;;;;-1.33;100.00;94870.75;5054825;28;20387;-76
2021/12/19 02:20:36;;;;;;;8.98;5.63;;;;;;;-1.41;100.00;94865.47;5055988;28;20025;-76
2021/12/19 02:23:03;;;;;;;14.82;6.47;;;;;;;-1.42;100.00;94869.31;5056088;28;20085;-76
2021/12/19 02:25:29;;;;;;;9.75;6.40;;;;;;;-1.54;100.00;94865.28;5062940;28;20033;-75
2021/12/19 02:27:54;;;;;;;11.88;7.07;;;;;;;-1.40;100.00;94871.59;5061301;28;20044;-75
2021/12/19 02:30:20;;;;;;;9.73;6.38;;;;;;;-1.54;100.00;94875.91;5054587;28;20029;-75
2021/12/19 02:32:46;;;;;;;11.05;7.10;;;;;;;-1.18;100.00;94876.63;5053915;28;20107;-75
2021/12/19 02:35:17;;;;;;;12.27;7.25;;;;;;;-1.41;100.00;94875.38;5053707;28;20112;-75
2021/12/19 02:40:39;;;;;;;11.95;7.10;;;;;;;-1.59;100.00;94871.03;5053368;28;20040;-75
2021/12/19 02:48:33;;;;;;;12.50;7.85;;;;;;;-1.61;100.00;94862.69;5054018;28;20047;-75
2021/12/19 02:51:01;;;;;;;13.40;7.60;;;;;;;-1.65;100.00;94851.34;5053214;28;20108;-75
2021/12/19 02:53:32;;;;;;;85.43;41.92;;;;;;;-0.68;100.00;94862.59;5052606;28;20102;-74
2021/12/19 02:56:01;;;;;;;13.98;8.98;;;;;;;-1.27;100.00;94859.25;5052149;28;20341;-75
2021/12/19 02:58:29;;;;;;;12.40;7.18;;;;;;;-1.60;100.00;94858.88;5053347;28;20095;-75
2021/12/19 03:00:56;;;;;;;12.02;7.43;;;;;;;-1.71;100.00;94843.00;5053702;28;20060;-75
2021/12/19 03:03:21;;;;;;;11.25;7.03;;;;;;;-1.58;100.00;94853.13;5053402;28;20403;-75
2021/12/19 03:05:47;;;;;;;12.70;6.70;;;;;;;-1.58;100.00;94850.47;5052472;28;20043;-74
2021/12/19 03:08:13;;;;;;;11.05;6.50;;;;;;;-1.57;100.00;94842.13;5053240;28;20021;-74
2021/12/19 03:18:33;;;;;;;10.05;6.35;;;;;;;-1.61;100.00;94832.66;5053135;28;20040;-75
2021/12/19 03:20:59;;;;;;;8.82;6.30;;;;;;;-1.73;100.00;94844.59;5052909;28;20032;-75
2021/12/19 03:23:25;;;;;;;9.50;5.78;;;;;;;-1.73;100.00;94841.94;5051840;28;20403;-75
2021/12/19 03:25:51;;;;;;;11.98;6.05;;;;;;;-1.65;100.00;94840.69;5052346;28;20335;-76
2021/12/19 03:28:18;;;;;;;9.00;5.82;;;;;;;-1.71;100.00;94842.28;5052783;28;20055;-75
2021/12/19 03:30:45;;;;;;;8.60;5.80;;;;;;;-1.60;100.00;94847.47;5052806;28;20025;-75
2021/12/19 03:33:11;;;;;;;9.45;6.03;;;;;;;-1.72;100.00;94840.75;5052501;28;20037;-75
2021/12/19 03:35:37;;;;;;;9.73;6.10;;;;;;;-1.69;100.00;94837.31;5052986;28;20094;-75
2021/12/19 03:38:08;;;;;;;9.25;6.00;;;;;;;-1.84;100.00;94833.28;5052675;28;20386;-75
2021/12/19 03:40:35;;;;;;;9.73;6.00;;;;;;;-1.87;100.00;94824.97;5052926;28;20021;-75
2021/12/19 03:43:05;;;;;;;9.25;6.22;;;;;;;-1.78;100.00;94821.06;5052121;28;20347;-75
2021/12/19 03:45:31;;;;;;;10.88;6.60;;;;;;;-1.97;100.00;94828.50;5052988;28;20029;-75
2021/12/19 03:47:56;;;;;;;10.65;6.50;;;;;;;-1.93;100.00;94829.22;5052523;28;20029;-75
2021/12/19 03:50:23;;;;;;;12.85;5.95;;;;;;;-2.01;100.00;94833.09;5051370;28;20029;-74
2021/12/19 03:52:54;;;;;;;11.57;6.00;;;;;;;-1.82;100.00;94836.31;5051554;28;20057;-76
2021/12/19 03:55:21;;;;;;;10.45;5.40;;;;;;;-2.01;100.00;94819.78;5052706;28;20081;-75
2021/12/19 03:57:47;;;;;;;9.18;5.65;;;;;;;-2.05;100.00;94819.06;5052821;28;20059;-76
2021/12/19 04:00:16;;;;;;;6.55;4.72;;;;;;;-2.02;100.00;94818.28;5052920;28;20029;-76
2021/12/19 04:02:41;;;;;;;8.50;5.10;;;;;;;-1.89;100.00;94808.63;5052473;28;20454;-76
2021/12/19 04:05:07;;;;;;;9.75;5.45;;;;;;;-1.86;100.00;94815.06;5052112;28;20025;-76
2021/12/19 04:07:33;;;;;;;10.63;5.50;;;;;;;-2.06;100.00;94809.59;5055484;28;20044;-75
2021/12/19 04:09:58;;;;;;;8.05;5.32;;;;;;;-1.96;100.00;94810.63;5056039;28;20430;-75
2021/12/19 04:12:27;;;;;;;7.13;5.13;;;;;;;-1.77;100.00;94811.91;5055205;28;20045;-75
2021/12/19 04:14:53;;;;;;;8.38;5.05;;;;;;;-1.83;100.00;94803.63;5056091;28;20100;-75
2021/12/19 04:17:19;;;;;;;9.38;5.32;;;;;;;-1.78;100.00;94799.78;5056035;28;20028;-75
2021/12/19 04:19:44;;;;;;;9.88;5.25;;;;;;;-1.94;100.00;94797.69;5056565;28;20083;-75
2021/12/19 04:22:10;;;;;;;7.55;4.70;;;;;;;-1.88;100.00;94786.19;5056420;28;20044;-75
2021/12/19 04:24:36;;;;;;;8.48;4.85;;;;;;;-1.81;100.00;94787.25;5056675;28;20033;-75
2021/12/19 04:27:01;;;;;;;8.13;4.35;;;;;;;-1.97;100.00;94793.91;5056547;28;20029;-75
2021/12/19 04:29:27;;;;;;;9.02;4.35;;;;;;;-1.90;100.00;94788.50;5054883;28;20124;-75
2021/12/19 04:31:53;;;;;;;8.15;5.18;;;;;;;-1.78;100.00;94781.91;5056204;28;20032;-75
2021/12/19 04:34:19;;;;;;;9.18;4.85;;;;;;;-1.89;100.00;94783.94;5054825;28;20392;-75
2021/12/19 04:36:49;;;;;;;7.63;4.88;;;;;;;-1.88;100.00;94785.47;5055451;28;20347;-75
2021/12/19 04:39:25;;;;;;;9.50;5.10;;;;;;;-1.65;100.00;94787.44;5056155;28;20454;-75
2021/12/19 04:43:28;;;;;;;9.18;5.30;;;;;;;-1.83;100.00;94792.22;5055885;28;20025;-75
2021/12/19 05:00:09;;;;;;;8.95;5.85;;;;;;;-1.52;100.00;94758.38;5055811;28;20040;-76
2021/12/19 05:15:56;;;;;;;10.73;6.45;;;;;;;-1.57;100.00;94778.22;5055694;28;20043;-76
2021/12/19 05:18:26;;;;;;;11.57;6.05;;;;;;;-1.44;100.00;94780.34;5054620;28;20095;-75
2021/12/19 05:20:58;;;;;;;10.77;6.30;;;;;;;-1.52;100.00;94779.66;5055649;28;20444;-75
2021/12/19 05:25:55;;;;;;;9.98;6.43;;;;;;;-1.60;100.00;94767.59;5057011;28;20025;-75
2021/12/19 05:28:21;;;;;;;8.38;5.88;;;;;;;-1.36;100.00;94773.75;5055111;28;20060;-75
2021/12/19 05:30:47;;;;;;;16.63;6.45;;;;;;;-1.46;100.00;94770.09;5054873;28;20064;-76
2021/12/19 05:33:13;;;;;;;14.00;6.15;;;;;;;-1.37;100.00;94774.91;5054641;28;20028;-75
2021/12/19 05:46:34;;;;;;;12.57;6.47;;;;;;;-1.31;100.00;94775.19;5055057;28;20033;-75
2021/12/19 05:49:01;;;;;;;10.10;6.25;;;;;;;-1.25;100.00;94771.69;5054627;28;20059;-75
2021/12/19 05:51:27;;;;;;;10.68;6.25;;;;;;;-1.31;100.00;94765.31;5054806;28;20079;-76
2021/12/19 05:53:52;;;;;;;12.15;6.80;;;;;;;-1.32;100.00;94766.47;5054458;28;20129;-76
2021/12/19 05:56:19;;;;;;;11.60;6.78;;;;;;;-1.48;100.00;94763.66;5054344;28;20039;-74
2021/12/19 05:58:44;;;;;;;13.73;7.13;;;;;;;-1.39;100.00;94763.88;5054435;28;20040;-76
2021/12/19 06:01:10;;;;;;;12.20;7.70;;;;;;;-1.54;100.00;94768.66;5054856;28;20024;-76
2021/12/19 06:03:36;;;;;;;13.10;7.20;;;;;;;-1.38;100.00;94768.06;5054457;28;20036;-76
2021/12/19 06:06:01;;;;;;;10.43;7.05;;;;;;;-1.22;100.00;94759.47;5054739;28;20114;-76
2021/12/19 06:08:27;;;;;;;15.52;7.68;;;;;;;-1.10;100.00;94760.81;5054357;28;20095;-75
2021/12/19 06:10:52;;;;;;;12.82;7.28;;;;;;;-1.07;100.00;94754.69;5053806;28;20417;-76
2021/12/19 06:13:18;;;;;;;11.32;6.72;;;;;;;-1.14;100.00;94749.47;5053794;28;20029;-75
2021/12/19 06:15:44;;;;;;;13.27;6.63;;;;;;;-1.41;100.00;94747.56;5054303;28;20405;-75
2021/12/19 06:18:09;;;;;;;13.55;7.50;;;;;;;-1.42;100.00;94746.81;5054130;28;20088;-75
2021/12/19 06:20:35;;;;;;;12.50;6.60;;;;;;;-1.38;100.00;94736.09;5054008;28;20079;-75
2021/12/19 06:23:01;;;;;;;15.63;7.97;;;;;;;-1.30;100.00;94742.09;5054104;28;20036;-75
2021/12/19 06:25:27;;;;;;;16.17;7.32;;;;;;;-1.41;100.00;94734.25;5053734;28;20481;-75
2021/12/19 06:27:52;;;;;;;15.18;7.55;;;;;;;-1.45;100.00;94728.22;5054292;28;20035;-74
2021/12/19 06:30:18;;;;;;;17.45;6.97;;;;;;;-1.40;100.00;94727.78;5052827;28;20025;-74
2021/12/19 06:32:44;;;;;;;13.52;7.00;;;;;;;-1.42;100.00;94725.53;5053385;28;20029;-75
2021/12/19 06:35:17;;;;;;;13.13;7.07;;;;;;;-1.26;100.00;94721.47;5053666;28;20031;-76
2021/12/19 06:37:48;;;;;;;10.30;6.50;;;;;;;-1.22;100.00;94722.91;5053741;28;20437;-75
2021/12/19 06:40:17;;;;;;;14.68;6.80;;;;;;;-1.44;100.00;94717.16;5053454;28;20063;-76
2021/12/19 06:42:42;;;;;;;12.82;7.15;;;;;;;-1.22;100.00;94717.59;5053563;28;20486;-76
2021/12/19 06:45:09;;;;;;;14.68;7.43;;;;;;;-1.23;100.00;94721.44;5053964;28;20025;-75
2021/12/19 06:47:35;;;;;;;14.27;7.45;;;;;;;-1.39;100.00;94707.97;5053255;28;20033;-75
2021/12/19 06:50:01;;;;;;;14.05;7.35;;;;;;;-1.32;100.00;94707.88;5053685;28;20111;-77
2021/12/19 06:52:27;;;;;;;14.18;7.50;;;;;;;-0.94;100.00;94704.22;5053732;28;20029;-77
2021/12/19 06:54:52;;;;;;;11.43;7.32;;;;;;;-0.91;100.00;94704.16;5053436;28;20086;-76
2021/12/19 06:57:18;;;;;;;12.32;7.43;;;;;;;-0.79;100.00;94702.06;5053248;28;20430;-75
2021/12/19 06:59:44;;;;;;;14.82;8.10;;;;;;;-0.68;100.00;94715.97;5053290;28;20036;-76
2021/12/19 07:02:13;;;;;;;17.60;9.25;;;;;;;-0.33;100.00;94721.78;5052044;28;20112;-76
2021/12/19 07:04:40;;;;;;;16.92;8.63;;;;;;;-0.36;100.00;94715.38;5053366;28;20113;-75
2021/12/19 07:07:06;;;;;;;14.57;7.72;;;;;;;-0.44;100.00;94715.91;5053017;28;20029;-75
2021/12/19 07:09:31;;;;;;;16.27;8.13;;;;;;;0.08;100.00;94720.63;5053107;28;20107;-75
2021/12/19 07:11:57;;;;;;;12.20;8.05;;;;;;;0.32;100.00;94709.84;5052805;28;20048;-76
2021/12/19 07:14:22;;;;;;;15.65;7.88;;;;;;;0.56;100.00;94712.38;5053544;28;20033;-76
2021/12/19 07:16:48;;;;;;;13.50;7.88;;;;;;;0.44;100.00;94709.19;5053203;28;20033;-76
2021/12/19 07:19:13;;;;;;;13.02;7.60;;;;;;;0.26;100.00;94708.81;5053066;28;20086;-78
2021/12/19 07:21:39;;;;;;;12.50;7.78;;;;;;;0.20;100.00;94702.47;5053033;28;20047;-77
2021/12/19 07:24:05;;;;;;;15.27;7.57;;;;;;;0.12;100.00;94699.97;5053062;28;20024;-77
2021/12/19 07:26:30;;;;;;;14.07;7.70;;;;;;;0.09;100.00;94700.75;5052837;28;20467;-77
2021/12/19 07:28:56;;;;;;;15.52;6.65;;;;;;;0.05;100.00;94694.75;5053183;28;20025;-76
2021/12/19 07:31:22;;;;;;;13.07;7.22;;;;;;;0.20;99.83;94697.13;5051947;28;20450;-75
2021/12/19 07:33:48;;;;;;;14.13;6.97;;;;;;;0.31;99.80;94701.09;5052959;28;20025;-77
2021/12/19 07:36:14;;;;;;;10.60;6.25;;;;;;;-0.03;100.00;94691.50;5052494;28;20393;-76
2021/12/19 07:38:52;;;;;;;17.95;6.78;;;;;;;0.12;100.00;94699.97;5052772;28;20100;-76
2021/12/19 07:41:18;;;;;;;15.07;7.53;;;;;;;-0.07;100.00;94698.06;5054483;28;20037;-76
2021/12/19 07:43:44;;;;;;;12.48;7.50;;;;;;;-0.17;100.00;94697.09;5057111;28;20443;-77
2021/12/19 07:46:09;;;;;;;9.57;6.53;;;;;;;-0.24;100.00;94697.25;5056828;28;20033;-76
2021/12/19 07:48:35;;;;;;;13.07;6.78;;;;;;;-0.03;100.00;94688.81;5056767;28;20493;-77
2021/12/19 07:51:00;;;;;;;13.55;6.15;;;;;;;-0.22;100.00;94706.34;5058512;28;20021;-78
2021/12/19 07:53:26;;;;;;;13.05;6.80;;;;;;;0.04;100.00;94698.59;5059415;28;20032;-79
2021/12/19 07:55:51;;;;;;;13.07;7.13;;;;;;;-0.17;100.00;94695.19;5060710;28;20037;-79
2021/12/19 07:58:17;;;;;;;11.43;6.53;;;;;;;-0.14;100.00;94698.94;5057295;28;20025;-76
2021/12/19 08:00:43;;;;;;;10.15;6.93;;;;;;;0.35;99.89;94689.56;5056410;28;20396;-76
2021/12/19 08:03:08;;;;;;;13.38;6.95;;;;;;;0.24;99.65;94689.81;5055216;28;20028;-76
2021/12/19 08:05:34;;;;;;;12.68;6.57;;;;;;;0.37;98.88;94685.31;5057271;28;20063;-76
2021/12/19 08:08:02;;;;;;;13.25;6.45;;;;;;;-0.03;99.96;94672.03;5058470;28;20029;-77
2021/12/19 08:12:57;;;;;;;12.70;6.55;;;;;;;0.18;99.99;94654.84;5059196;28;20040;-80
2021/12/19 08:15:22;;;;;;;12.93;7.07;;;;;;;0.30;99.92;94653.41;5060560;28;20040;-77
2021/12/19 08:17:48;;;;;;;18.77;7.30;;;;;;;0.62;97.97;94643.94;5058814;28;20071;-78
2021/12/19 08:20:15;;;;;;;15.10;7.88;;;;;;;0.95;96.50;94643.88;5059377;28;20029;-77
2021/12/19 08:22:41;;;;;;;11.35;6.82;;;;;;;0.74;96.11;94645.91;5076932;28;20095;-78
2021/12/19 08:25:07;;;;;;;16.88;7.13;;;;;;;0.87;95.60;94626.53;5076563;28;20017;-77
2021/12/19 08:27:37;;;;;;;16.33;6.22;;;;;;;0.68;95.23;94628.88;5067888;28;20534;-79
2021/12/19 08:30:08;;;;;;;16.65;6.95;;;;;;;0.71;96.12;94625.41;5061883;28;20139;-78
2021/12/19 08:32:34;;;;;;;16.00;6.75;;;;;;;0.63;96.45;94629.41;5060493;28;20157;-75
2021/12/19 08:35:00;;;;;;;11.38;6.93;;;;;;;0.68;96.56;94626.22;5058725;28;20032;-76
2021/12/19 08:37:26;;;;;;;12.88;7.22;;;;;;;0.72;95.51;94629.53;5059228;28;20437;-77
2021/12/19 08:39:51;;;;;;;10.50;7.13;;;;;;;1.00;95.13;94624.69;5060930;28;20025;-77
2021/12/19 08:42:17;;;;;;;13.10;7.30;;;;;;;1.10;94.11;94623.63;5059631;28;20485;-77
2021/12/19 08:44:43;;;;;;;16.00;7.60;;;;;;;0.72;95.99;94626.88;5059958;28;20032;-79
2021/12/19 08:47:10;;;;;;;16.83;8.38;;;;;;;0.63;96.12;94624.06;5060636;28;20028;-79
2021/12/19 08:49:35;;;;;;;12.80;7.25;;;;;;;0.47;96.18;94625.56;5062519;28;20056;-78
2021/12/19 08:52:02;;;;;;;15.68;8.68;;;;;;;0.64;94.86;94639.66;5067952;28;20029;-77
2021/12/19 08:54:27;;;;;;;13.00;8.00;;;;;;;1.03;94.44;94642.53;5070817;28;20025;-77
2021/12/19 08:56:53;;;;;;;13.90;6.95;;;;;;;0.65;96.80;94627.06;5070571;28;20024;-78
2021/12/19 08:59:18;;;;;;;13.80;7.32;;;;;;;0.64;96.69;94625.53;5071118;28;20033;-79
2021/12/19 09:01:44;;;;;;;15.15;7.68;;;;;;;1.01;95.04;94631.53;5070875;28;20047;-78
2021/12/19 09:04:09;;;;;;;12.23;6.97;;;;;;;1.00;94.25;94628.09;5071404;28;20052;-80
2021/12/19 09:06:36;;;;;;;11.18;7.32;;;;;;;0.98;94.21;94627.00;5070931;28;20029;-80
2021/12/19 09:09:04;;;;;;;13.32;7.50;;;;;;;0.67;96.81;94625.47;5071561;28;20112;-79
2021/12/19 09:11:31;;;;;;;13.82;7.05;;;;;;;0.46;97.43;94624.06;5073426;28;20049;-78
2021/12/19 09:13:56;;;;;;;11.45;7.20;;;;;;;0.55;98.77;94615.47;5072753;28;20036;-79
2021/12/19 09:16:22;;;;;;;12.55;7.70;;;;;;;0.78;98.49;94614.53;5073270;28;20017;-79
2021/12/19 09:18:48;;;;;;;18.02;7.28;;;;;;;0.70;96.63;94588.41;5073535;28;20029;-80
2021/12/19 09:21:14;;;;;;;10.75;7.20;;;;;;;0.57;97.92;94604.34;5072505;28;20072;-79
2021/12/19 09:23:40;;;;;;;14.25;8.15;;;;;;;0.77;97.98;94602.31;5072614;28;20021;-77
2021/12/19 09:26:06;;;;;;;13.00;8.00;;;;;;;0.83;98.98;94611.34;5070589;28;20039;-76
2021/12/19 09:28:32;;;;;;;14.98;8.52;;;;;;;1.11;96.89;94606.44;5070023;28;20028;-75
2021/12/19 09:30:57;;;;;;;13.60;8.88;;;;;;;0.86;99.14;94604.41;5070004;28;20024;-74
2021/12/19 09:33:23;;;;;;;17.23;9.25;;;;;;;0.57;99.75;94588.31;5069813;28;20040;-74
2021/12/19 09:35:48;;;;;;;15.55;9.20;;;;;;;0.52;100.00;94583.47;5070149;28;20382;-74
2021/12/19 09:38:14;;;;;;;17.83;9.15;;;;;;;0.35;100.00;94578.16;5070661;28;20376;-74
2021/12/19 09:40:42;;;;;;;18.52;9.18;;;;;;;0.49;100.00;94577.81;5068904;28;20029;-73
2021/12/19 09:43:31;;;;;;;16.52;9.15;;;;;;;0.53;100.00;94567.03;5068382;28;20032;-75
2021/12/19 09:46:00;;;;;;;16.90;9.27;;;;;;;0.81;99.98;94565.56;5064780;28;20419;-75
2021/12/19 09:48:26;;;;;;;17.38;10.07;;;;;;;0.84;99.03;94562.06;5064507;28;20024;-74
2021/12/19 09:50:53;;;;;;;13.77;8.73;;;;;;;0.49;100.00;94551.13;5064345;28;20032;-74
2021/12/19 09:53:19;;;;;;;16.33;8.82;;;;;;;0.57;100.00;94543.66;5055344;28;20025;-75
2021/12/19 09:55:45;;;;;;;15.38;8.90;;;;;;;0.63;100.00;94544.66;5054408;28;20047;-74
2021/12/19 09:58:10;;;;;;;13.13;8.23;;;;;;;0.52;100.00;94538.84;5054769;28;20446;-75
2021/12/19 10:00:36;;;;;;;14.07;8.75;;;;;;;0.57;100.00;94527.63;5053392;28;20354;-74
2021/12/19 10:03:01;;;;;;;11.93;8.25;;;;;;;0.78;100.00;94530.94;5054348;28;20077;-74
2021/12/19 10:05:28;;;;;;;15.73;8.68;;;;;;;0.48;100.00;94522.91;5054932;28;20028;-75
2021/12/19 10:07:56;;;;;;;15.38;9.43;;;;;;;0.49;100.00;94503.03;5062602;28;20370;-74
2021/12/19 10:10:54;;;;;;;16.98;10.38;;;;;;;0.73;100.00;94505.47;5054383;28;20064;-76
2021/12/19 10:13:31;;;;;;;16.52;9.38;;;;;;;0.79;100.00;94498.47;5054431;28;20044;-74
2021/12/19 10:15:57;;;;;;;15.38;8.80;;;;;;;0.65;100.00;94488.13;5054700;28;20028;-75
2021/12/19 10:18:23;;;;;;;16.35;9.75;;;;;;;0.78;100.00;94496.94;5054430;28;20051;-75
2021/12/19 10:20:50;;;;;;;13.98;8.20;;;;;;;0.64;100.00;94486.63;5055011;28;20033;-75
2021/12/19 10:23:31;;;;;;;19.17;10.80;;;;;;;0.92;100.00;94489.72;5055344;28;20102;-76
2021/12/19 10:26:01;;;;;;;18.42;10.07;;;;;;;0.97;100.00;94486.53;5054646;28;20111;-74
2021/12/19 10:28:28;;;;;;;14.88;9.32;;;;;;;1.04;100.00;94480.22;5052956;28;20033;-73
2021/12/19 10:30:55;;;;;;;15.90;10.13;;;;;;;1.26;100.00;94480.38;5052560;28;20025;-74
2021/12/19 10:33:25;;;;;;;15.18;9.02;;;;;;;1.08;100.00;94465.59;5053857;28;20025;-75
2021/12/19 10:35:54;;;;;;;19.13;9.45;;;;;;;1.22;100.00;94474.38;5053977;28;20112;-74
2021/12/19 10:38:23;;;;;;;13.48;8.75;;;;;;;0.87;100.00;94471.53;5053965;28;20126;-74
2021/12/19 10:41:00;;;;;;;16.48;10.05;;;;;;;1.10;100.00;94463.22;5053872;28;20120;-75
2021/12/19 10:43:29;;;;;;;19.65;9.68;;;;;;;1.43;100.00;94463.06;5052728;28;20100;-74
2021/12/19 10:45:59;;;;;;;15.85;9.80;;;;;;;1.50;100.00;94467.44;5053596;28;20025;-74
2021/12/19 10:48:39;;;;;;;18.67;9.75;;;;;;;1.48;100.00;94457.16;5053641;28;20029;-73
2021/12/19 10:51:19;;;;;;;14.48;8.93;;;;;;;1.10;100.00;94447.19;5053590;28;20090;-74
2021/12/19 10:53:55;;;;;;;13.75;8.93;;;;;;;0.85;100.00;94442.56;5053968;28;20423;-74
2021/12/19 10:56:25;;;;;;;17.00;10.27;;;;;;;0.98;100.00;94456.72;5053579;28;20029;-74
2021/12/19 10:58:58;;;;;;;17.65;10.25;;;;;;;1.03;100.00;94446.66;5053337;28;20567;-74
2021/12/19 11:01:36;;;;;;;18.98;10.93;;;;;;;1.17;100.00;94449.69;5052290;28;20021;-74
2021/12/19 11:04:20;;;;;;;18.30;10.23;;;;;;;1.15;100.00;94445.94;5053725;28;20053;-80
2021/12/19 11:06:57;;;;;;;18.52;11.15;;;;;;;1.35;100.00;94435.78;5053159;28;20036;-74
2021/12/19 11:09:34;;;;;;;15.15;9.48;;;;;;;1.62;100.00;94428.47;5053700;28;20036;-74
2021/12/19 11:12:05;;;;;;;22.83;10.23;;;;;;;1.65;100.00;94423.03;5053155;28;20049;-76
2021/12/19 11:14:39;;;;;;;17.35;10.88;;;;;;;1.37;100.00;94418.56;5053712;28;20029;-74
2021/12/19 11:17:18;;;;;;;18.33;10.65;;;;;;;1.26;100.00;94413.53;5053173;28;20451;-74
2021/12/19 11:19:44;;;;;;;20.85;11.13;;;;;;;1.61;100.00;94421.63;5054836;28;20024;-75
2021/12/19 11:22:11;;;;;;;19.02;10.80;;;;;;;2.49;100.00;94411.09;5054207;28;20029;-72
2021/12/19 11:24:37;;;;;;;15.23;9.23;;;;;;;2.77;96.85;94400.56;5054173;28;20515;-76
2021/12/19 11:27:05;;;;;;;15.57;8.68;;;;;;;1.83;97.78;94401.06;5053454;28;20025;-79
2021/12/19 11:29:31;;;;;;;17.88;8.43;;;;;;;1.89;97.04;94390.53;5053034;28;20499;-73
2021/12/19 11:32:01;;;;;;;14.60;8.02;;;;;;;1.75;97.47;94396.38;5052716;28;20037;-73
2021/12/19 11:34:30;;;;;;;15.32;8.50;;;;;;;1.80;96.60;94396.56;5053061;28;20082;-74
2021/12/19 11:36:55;;;;;;;17.60;8.25;;;;;;;1.45;99.23;94404.53;5052759;28;20029;-75
2021/12/19 11:39:26;;;;;;;16.13;9.05;;;;;;;1.46;99.13;94403.34;5052667;28;20017;-73
2021/12/19 11:42:10;;;;;;;13.75;7.97;;;;;;;1.31;98.15;94397.69;5052961;28;20017;-74
2021/12/19 11:44:49;;;;;;;14.27;8.45;;;;;;;1.45;99.02;94395.78;5051600;28;20032;-78
2021/12/19 11:47:51;;;;;;;16.75;7.68;;;;;;;1.34;99.18;94396.84;5052802;28;20438;-77
2021/12/19 11:50:22;;;;;;;12.25;7.22;;;;;;;1.18;100.00;94383.56;5052786;28;20450;-77
2021/12/19 11:53:18;;;;;;;16.80;8.80;;;;;;;1.01;100.00;94374.94;5053152;28;20468;-77
2021/12/19 11:55:52;;;;;;;15.80;8.65;;;;;;;1.04;100.00;94373.28;5052825;28;20033;-75
2021/12/19 11:58:19;;;;;;;15.70;8.85;;;;;;;1.31;100.00;94370.97;5052658;28;20025;-75
2021/12/19 12:01:05;;;;;;;14.00;8.88;;;;;;;1.22;100.00;94351.41;5052681;28;20091;-75
2021/12/19 12:03:38;;;;;;;17.27;9.43;;;;;;;0.99;100.00;94355.88;5052824;28;20021;-74
2021/12/19 12:06:21;;;;;;;15.32;8.45;;;;;;;0.94;100.00;94353.72;5052482;28;20347;-75
2021/12/19 12:09:06;;;;;;;16.92;9.15;;;;;;;0.97;100.00;94350.97;5052496;28;20028;-75
2021/12/19 12:11:33;;;;;;;16.45;9.48;;;;;;;1.10;100.00;94353.63;5052148;28;20476;-68
2021/12/19 12:14:20;;;;;;;19.48;10.77;;;;;;;0.84;100.00;94340.25;5052229;28;20466;-67
2021/12/19 12:17:20;;;;;;;15.43;9.50;;;;;;;0.84;100.00;94332.25;5052212;28;20052;-67
2021/12/19 12:19:54;;;;;;;16.42;9.95;;;;;;;0.74;100.00;94327.22;5052685;28;20021;-67
2021/12/19 12:22:25;;;;;;;17.63;10.38;;;;;;;0.88;100.00;94334.81;5052586;28;20064;-69
2021/12/19 12:25:16;;;;;;;17.33;11.40;;;;;;;1.14;100.00;94332.88;5052547;28;20398;-67
2021/12/19 12:27:43;;;;;;;21.13;10.73;;;;;;;1.03;100.00;94319.09;5055427;28;20025;-72
2021/12/19 12:30:19;;;;;;;19.70;11.05;;;;;;;0.94;100.00;94305.63;5056499;28;20056;-73
2021/12/19 12:32:46;;;;;;;22.13;10.68;;;;;;;0.88;100.00;94310.03;5057522;28;20485;-71
2021/12/19 12:35:13;;;;;;;19.30;9.77;;;;;;;0.90;100.00;94303.09;5056139;28;20454;-69
2021/12/19 12:37:41;;;;;;;19.17;10.25;;;;;;;0.93;100.00;94293.47;5055931;28;20037;-70